Time;durP1;ratioP1;P1;durP2;ratioP2;P2;SDS_P1;SDS_P2;PMS_P1;PMS_P2;Temp;Humidity;BMP_temperature;BMP_pressure;BME280_temperature;BME280_humidity;BME280_pressure;Samples;Min_cycle;Max_cycle;Signal;HPM_P1;HPM_P2
2022/02/15 00:01:17;;;;;;;48.85;24.63;;;;;;;0.68;71.01;99955.70;1661103;85;25726;-72
2022/02/15 00:03:43;;;;;;;43.75;23.70;;;;;;;0.68;70.60;99954.36;1680754;85;27407;-72
2022/02/15 00:06:10;;;;;;;45.98;23.98;;;;;;;0.67;70.46;99952.77;1680620;85;25651;-72
2022/02/15 00:08:36;;;;;;;45.75;24.65;;;;;;;0.65;70.45;99953.56;1680787;85;25313;-72
2022/02/15 00:11:03;;;;;;;43.98;24.25;;;;;;;0.64;70.86;99950.61;1680665;85;25654;-72
2022/02/15 00:13:30;;;;;;;47.27;24.15;;;;;;;0.61;71.01;99954.56;1680716;85;25556;-71
2022/02/15 00:15:56;;;;;;;45.92;23.22;;;;;;;0.60;70.89;99950.31;1680687;85;27517;-73
2022/02/15 00:18:23;;;;;;;46.30;22.87;;;;;;;0.59;70.89;99942.04;1680655;85;25723;-71
2022/02/15 00:20:50;;;;;;;45.73;21.30;;;;;;;0.58;71.15;99946.28;1680722;85;25728;-72
2022/02/15 00:23:17;;;;;;;45.38;22.70;;;;;;;0.57;71.19;99946.02;1680643;85;25673;-73
2022/02/15 00:25:43;;;;;;;47.30;23.55;;;;;;;0.58;71.04;99946.28;1680821;85;26410;-73
2022/02/15 00:28:10;;;;;;;46.00;22.20;;;;;;;0.57;71.67;99938.03;1680718;85;28056;-73
2022/02/15 00:30:36;;;;;;;52.73;36.50;;;;;;;0.57;71.22;99936.17;1680648;85;25442;-72
2022/02/15 00:33:03;;;;;;;47.60;24.60;;;;;;;0.55;71.52;99939.08;1680686;85;25624;-72
2022/02/15 00:35:30;;;;;;;42.23;24.75;;;;;;;0.55;71.78;99936.95;1681155;85;25605;-73
2022/02/15 00:37:56;;;;;;;44.25;24.23;;;;;;;0.54;71.54;99934.00;1681205;85;25768;-72
2022/02/15 00:40:23;;;;;;;50.43;24.67;;;;;;;0.52;71.33;99930.80;1681192;85;27944;-72
2022/02/15 00:42:49;;;;;;;47.93;24.55;;;;;;;0.50;71.52;99928.91;1681141;85;25663;-70
2022/02/15 00:45:16;;;;;;;46.98;23.20;;;;;;;0.48;71.52;99928.38;1681145;85;25636;-72
2022/02/15 00:47:43;;;;;;;97.72;88.65;;;;;;;0.46;71.46;99923.80;1681210;85;25633;-73
2022/02/15 00:50:11;;;;;;;48.63;25.30;;;;;;;0.44;71.54;99915.27;1681219;85;25416;-72
2022/02/15 00:52:37;;;;;;;47.33;24.65;;;;;;;0.48;71.51;99925.71;1681171;85;28023;-72
2022/02/15 00:55:08;;;;;;;46.55;24.23;;;;;;;0.47;71.48;99923.55;1653948;85;25664;-72
2022/02/15 00:57:36;;;;;;;44.00;23.35;;;;;;;0.45;72.00;99924.34;1681240;85;25603;-73
2022/02/15 01:00:08;;;;;;;50.60;25.15;;;;;;;0.43;71.71;99925.13;1681082;85;25735;-73
2022/02/15 01:02:34;;;;;;;47.58;23.50;;;;;;;0.43;72.44;99925.66;1681252;85;25672;-73
2022/02/15 01:05:01;;;;;;;50.80;24.18;;;;;;;0.42;72.04;99922.17;1681201;85;27891;-73
2022/02/15 01:07:27;;;;;;;51.40;24.98;;;;;;;0.42;71.78;99913.39;1681066;85;25658;-72
2022/02/15 01:09:54;;;;;;;56.55;42.17;;;;;;;0.38;73.30;99918.42;1681191;85;25546;-72
2022/02/15 01:12:20;;;;;;;57.25;26.10;;;;;;;0.41;72.62;99916.59;1681117;85;26449;-73
2022/02/15 01:14:47;;;;;;;47.38;25.10;;;;;;;0.40;73.80;99917.63;1681218;85;25633;-73
2022/02/15 01:17:13;;;;;;;52.05;27.05;;;;;;;0.41;72.65;99911.77;1681139;85;27927;-72
2022/02/15 01:19:40;;;;;;;49.40;26.15;;;;;;;0.41;72.99;99904.62;1681147;85;25706;-72
2022/02/15 01:22:07;;;;;;;52.05;26.07;;;;;;;0.43;72.81;99909.69;1681397;85;25561;-73
2022/02/15 01:24:33;;;;;;;48.13;25.80;;;;;;;0.43;73.08;99903.83;1681374;85;25805;-73
2022/02/15 01:27:00;;;;;;;50.75;26.93;;;;;;;0.43;72.96;99899.05;1681424;85;25641;-73
2022/02/15 01:29:26;;;;;;;98.10;88.55;;;;;;;0.42;73.50;99896.09;1681454;85;27401;-73
2022/02/15 01:31:53;;;;;;;55.83;26.75;;;;;;;0.43;73.24;99889.73;1681327;85;25509;-72
2022/02/15 01:34:22;;;;;;;52.60;27.32;;;;;;;0.45;73.22;99888.95;1690516;84;25432;-73
2022/02/15 01:36:48;;;;;;;49.08;26.97;;;;;;;0.44;73.21;99884.67;1693503;84;25652;-73
2022/02/15 01:39:15;;;;;;;48.65;27.00;;;;;;;0.43;74.20;99879.88;1693588;84;25471;-73
2022/02/15 01:41:41;;;;;;;51.95;26.20;;;;;;;0.44;73.38;99882.80;1693547;84;27425;-73
2022/02/15 01:44:08;;;;;;;51.10;26.65;;;;;;;0.44;73.32;99876.69;1693444;84;25653;-73
2022/02/15 01:46:39;;;;;;;49.73;26.82;;;;;;;0.42;73.17;99882.26;1693539;84;25400;-73
2022/02/15 01:49:06;;;;;;;49.30;27.13;;;;;;;0.43;73.57;99877.76;1693511;84;25601;-72
2022/02/15 01:51:33;;;;;;;48.05;26.48;;;;;;;0.43;73.64;99888.41;1693534;84;25494;-73
2022/02/15 01:53:59;;;;;;;52.83;28.23;;;;;;;0.44;73.77;99875.36;1693484;84;28144;-73
2022/02/15 01:56:27;;;;;;;48.50;27.25;;;;;;;0.44;75.06;99877.48;1693440;84;25459;-73
2022/02/15 01:58:55;;;;;;;57.08;27.90;;;;;;;0.45;74.51;99875.11;1693491;84;25656;-73
2022/02/15 02:01:23;;;;;;;55.23;27.45;;;;;;;0.46;74.12;99862.59;1693489;84;25617;-73
2022/02/15 02:03:49;;;;;;;53.70;26.30;;;;;;;0.47;74.40;99862.88;1693530;84;25610;-73
2022/02/15 02:06:16;;;;;;;51.65;27.42;;;;;;;0.45;74.54;99856.48;1693512;84;27517;-73
2022/02/15 02:08:42;;;;;;;53.40;27.45;;;;;;;0.46;74.25;99863.92;1693429;84;25665;-73
2022/02/15 02:11:09;;;;;;;55.40;26.93;;;;;;;0.44;74.17;99866.84;1693516;84;25627;-73
2022/02/15 02:13:36;;;;;;;52.62;24.27;;;;;;;0.44;74.14;99858.06;1693452;84;25612;-73
2022/02/15 02:16:06;;;;;;;49.73;25.02;;;;;;;0.42;74.27;99856.18;1693537;84;25420;-73
2022/02/15 02:18:33;;;;;;;50.10;27.77;;;;;;;0.42;74.51;99858.84;1693507;84;27325;-73
2022/02/15 02:21:03;;;;;;;50.65;26.00;;;;;;;0.41;75.47;99854.56;1693417;84;25578;-73
2022/02/15 02:23:30;;;;;;;52.15;26.12;;;;;;;0.41;74.45;99857.23;1693013;84;25473;-73
2022/02/15 02:25:57;;;;;;;53.13;27.90;;;;;;;0.41;75.13;99857.23;1693458;84;25680;-73
2022/02/15 02:28:23;;;;;;;49.63;26.48;;;;;;;0.39;74.61;99858.80;1693511;84;25602;-73
2022/02/15 02:30:50;;;;;;;53.60;28.20;;;;;;;0.38;74.57;99849.23;1693506;84;27922;-73
2022/02/15 02:33:18;;;;;;;51.98;27.13;;;;;;;0.36;74.85;99853.48;1691545;84;25752;-74
2022/02/15 02:35:44;;;;;;;50.03;26.25;;;;;;;0.34;74.97;99855.59;1681359;85;25471;-74
2022/02/15 02:38:11;;;;;;;47.17;25.23;;;;;;;0.33;75.18;99855.30;1681296;85;25600;-74
2022/02/15 02:40:37;;;;;;;48.52;26.15;;;;;;;0.32;74.78;99850.23;1681396;85;25607;-74
2022/02/15 02:43:04;;;;;;;53.68;26.57;;;;;;;0.29;74.88;99854.21;1681360;85;27907;-74
2022/02/15 02:45:30;;;;;;;49.27;26.93;;;;;;;0.28;74.88;99854.46;1681373;85;25469;-74
2022/02/15 02:47:58;;;;;;;55.92;27.32;;;;;;;0.27;74.88;99858.95;1681495;85;25416;-74
2022/02/15 02:50:26;;;;;;;52.85;27.07;;;;;;;0.26;75.76;99861.36;1681453;85;25725;-74
2022/02/15 02:52:55;;;;;;;54.18;26.68;;;;;;;0.26;75.96;99844.06;1681525;85;25448;-74
2022/02/15 02:55:21;;;;;;;52.00;26.33;;;;;;;0.26;75.77;99845.40;1681444;85;27315;-74
2022/02/15 02:57:48;;;;;;;54.27;26.62;;;;;;;0.24;76.14;99844.85;1681441;85;25639;-74
2022/02/15 03:00:18;;;;;;;50.98;25.72;;;;;;;0.24;75.98;99839.53;1681469;85;25630;-74
2022/02/15 03:02:45;;;;;;;51.33;28.95;;;;;;;0.23;75.92;99849.88;1681466;85;25770;-74
2022/02/15 03:05:11;;;;;;;54.27;27.95;;;;;;;0.24;76.10;99848.02;1654249;85;25563;-74
2022/02/15 03:07:38;;;;;;;50.03;26.35;;;;;;;0.22;76.71;99847.47;1681477;85;27932;-74
2022/02/15 03:10:05;;;;;;;53.15;28.05;;;;;;;0.21;76.02;99843.22;1681357;84;25691;-74
2022/02/15 03:12:32;;;;;;;52.88;27.98;;;;;;;0.20;76.44;99845.06;1681480;85;25833;-73
2022/02/15 03:14:59;;;;;;;57.53;28.50;;;;;;;0.20;76.78;99846.92;1681410;85;26249;-73
2022/02/15 03:17:25;;;;;;;50.28;28.05;;;;;;;0.20;76.72;99834.95;1681448;85;25660;-73
2022/02/15 03:19:52;;;;;;;58.30;31.02;;;;;;;0.20;76.61;99846.92;1681476;85;27468;-73
2022/02/15 03:22:19;;;;;;;54.03;28.23;;;;;;;0.20;77.87;99849.05;1681352;85;25411;-73
2022/02/15 03:24:46;;;;;;;53.35;28.57;;;;;;;0.18;77.00;99851.95;1681408;85;25649;-73
2022/02/15 03:27:12;;;;;;;55.03;28.00;;;;;;;0.16;76.59;99859.92;1681397;85;26234;-73
2022/02/15 03:29:39;;;;;;;51.53;27.62;;;;;;;0.15;77.12;99858.30;1681501;85;25601;-73
2022/02/15 03:32:06;;;;;;;57.00;28.12;;;;;;;0.15;76.68;99846.34;1681446;85;27943;-73
2022/02/15 03:34:33;;;;;;;54.18;27.98;;;;;;;0.16;77.00;99850.08;1687717;84;25599;-73
2022/02/15 03:36:59;;;;;;;51.20;26.85;;;;;;;0.15;76.74;99855.14;1693613;84;25564;-73
2022/02/15 03:39:26;;;;;;;50.15;27.40;;;;;;;0.15;76.85;99865.78;1693550;84;25670;-73
2022/02/15 03:44:36;;;;;;;49.95;23.85;;;;;;;0.13;76.87;99859.09;1670038;84;27846;-73
2022/02/15 03:47:04;;;;;;;51.25;27.17;;;;;;;0.15;77.09;99855.64;1693526;84;25493;-72
2022/02/15 03:49:33;;;;;;;55.05;28.20;;;;;;;0.14;77.09;99853.52;1693596;84;25540;-73
2022/02/15 03:51:59;;;;;;;53.75;27.37;;;;;;;0.14;76.90;99855.39;1693673;84;31353;-73
2022/02/15 03:54:25;;;;;;;51.48;27.07;;;;;;;0.13;77.09;99857.77;1693620;84;25572;-73
2022/02/15 03:56:52;;;;;;;56.13;28.27;;;;;;;0.14;77.86;99851.40;1693537;84;28123;-73
2022/02/15 03:59:19;;;;;;;57.03;26.50;;;;;;;0.13;77.74;99853.23;1693509;84;25763;-73
2022/02/15 04:01:46;;;;;;;51.18;27.60;;;;;;;0.13;77.29;99851.11;1693560;84;25593;-73
2022/02/15 04:04:13;;;;;;;50.17;27.13;;;;;;;0.12;77.50;99838.34;1693550;84;25639;-72
2022/02/15 04:06:39;;;;;;;52.00;26.48;;;;;;;0.10;77.83;99842.30;1693569;84;25415;-73
2022/02/15 04:09:06;;;;;;;51.23;26.82;;;;;;;0.10;77.54;99844.95;1693562;84;27949;-73
2022/02/15 04:11:33;;;;;;;49.40;25.27;;;;;;;0.10;77.71;99853.76;1665762;84;25613;-72
2022/02/15 04:13:59;;;;;;;48.00;26.42;;;;;;;0.09;77.70;99847.36;1693592;84;25523;-72
2022/02/15 04:16:26;;;;;;;50.75;26.70;;;;;;;0.08;78.00;99849.19;1693509;84;25799;-73
2022/02/15 04:18:52;;;;;;;51.08;25.32;;;;;;;0.09;78.05;99848.16;1693611;84;25644;-73
2022/02/15 04:21:23;;;;;;;48.30;26.40;;;;;;;0.08;77.65;99847.07;1693561;84;27868;-73
2022/02/15 04:23:51;;;;;;;48.98;25.95;;;;;;;0.05;77.56;99846.23;1693615;84;25418;-73
2022/02/15 04:26:18;;;;;;;48.73;27.48;;;;;;;0.04;77.67;99841.45;1693671;84;25397;-73
2022/02/15 04:28:44;;;;;;;47.75;25.00;;;;;;;0.02;77.20;99840.91;1693583;84;25841;-73
2022/02/15 04:31:11;;;;;;;53.48;26.55;;;;;;;0.00;77.63;99835.03;1693622;84;25624;-73
2022/02/15 04:33:37;;;;;;;54.30;26.52;;;;;;;0.01;77.76;99833.17;1693552;84;27392;-73
2022/02/15 04:36:05;;;;;;;49.53;24.37;;;;;;;0.01;77.96;99841.15;1681251;84;25534;-74
2022/02/15 04:38:31;;;;;;;50.03;26.02;;;;;;;-0.01;77.99;99846.18;1681413;85;25468;-74
2022/02/15 04:40:58;;;;;;;49.05;26.33;;;;;;;0.00;77.81;99848.33;1681387;85;25616;-73
2022/02/15 04:43:25;;;;;;;52.55;24.52;;;;;;;-0.01;77.75;99847.51;1681434;85;25415;-74
2022/02/15 04:45:53;;;;;;;50.92;25.05;;;;;;;-0.03;78.16;99844.84;1681438;85;27320;-74
2022/02/15 04:48:20;;;;;;;47.98;23.67;;;;;;;-0.04;77.80;99848.00;1681315;85;25606;-73
2022/02/15 04:50:46;;;;;;;47.62;24.95;;;;;;;-0.07;77.72;99851.69;1681431;85;25649;-74
2022/02/15 04:53:13;;;;;;;47.17;23.90;;;;;;;-0.07;77.52;99852.52;1681372;85;26273;-74
2022/02/15 04:55:40;;;;;;;50.17;24.63;;;;;;;-0.09;77.65;99849.27;1681403;85;25487;-74
2022/02/15 04:58:07;;;;;;;48.63;24.23;;;;;;;-0.11;77.71;99850.05;1681426;85;27311;-74
2022/02/15 05:00:34;;;;;;;49.42;24.72;;;;;;;-0.12;77.90;99854.29;1681320;85;25470;-74
2022/02/15 05:03:00;;;;;;;47.93;23.60;;;;;;;-0.12;78.35;99862.27;1681406;85;25630;-74
2022/02/15 05:05:27;;;;;;;49.90;24.25;;;;;;;-0.13;77.82;99861.47;1680747;85;25652;-74
2022/02/15 05:07:53;;;;;;;49.15;25.32;;;;;;;-0.16;78.14;99855.31;1680472;85;25822;-74
2022/02/15 05:10:19;;;;;;;47.13;24.32;;;;;;;-0.16;77.74;99860.63;1680983;84;27382;-73
2022/02/15 05:12:46;;;;;;;44.67;22.90;;;;;;;-0.18;77.92;99860.08;1681315;85;25656;-73
2022/02/15 05:15:12;;;;;;;46.80;22.58;;;;;;;-0.20;78.07;99855.02;1681364;85;25614;-73
2022/02/15 05:17:44;;;;;;;47.05;22.20;;;;;;;-0.20;78.03;99847.57;1681363;85;25632;-74
2022/02/15 05:20:09;;;;;;;46.20;21.50;;;;;;;-0.21;77.83;99847.28;1680998;85;25613;-74
2022/02/15 05:22:36;;;;;;;44.67;23.02;;;;;;;-0.25;77.89;99846.98;1681398;85;27866;-74
2022/02/15 05:25:03;;;;;;;46.70;22.87;;;;;;;-0.26;78.10;99849.88;1681288;84;25571;-74
2022/02/15 05:27:30;;;;;;;50.43;25.02;;;;;;;-0.27;77.96;99848.30;1681389;85;25615;-74
2022/02/15 05:29:56;;;;;;;47.10;24.52;;;;;;;-0.29;77.79;99847.20;1681350;85;25628;-74
2022/02/15 05:32:23;;;;;;;56.15;27.22;;;;;;;-0.31;77.82;99845.83;1681424;85;25548;-73
2022/02/15 05:34:49;;;;;;;50.75;25.25;;;;;;;-0.35;77.93;99848.72;1680377;84;27495;-73
2022/02/15 05:37:15;;;;;;;44.93;24.72;;;;;;;-0.37;78.07;99839.66;1678606;85;25661;-73
2022/02/15 05:39:42;;;;;;;48.23;24.47;;;;;;;-0.41;78.54;99830.56;1678690;85;25599;-72
2022/02/15 05:42:08;;;;;;;48.90;25.60;;;;;;;-0.40;78.53;99839.62;1678642;85;26229;-73
2022/02/15 05:44:34;;;;;;;47.38;26.07;;;;;;;-0.43;78.64;99852.06;1678810;85;25498;-72
2022/02/15 05:47:01;;;;;;;45.67;24.60;;;;;;;-0.45;78.47;99847.53;1678780;85;27396;-73
2022/02/15 05:49:27;;;;;;;46.63;23.92;;;;;;;-0.46;78.50;99846.44;1678684;85;25715;-73
2022/02/15 05:51:54;;;;;;;54.35;25.95;;;;;;;-0.48;78.79;99840.04;1678798;85;25439;-74
2022/02/15 05:54:21;;;;;;;49.05;25.37;;;;;;;-0.49;78.63;99842.97;1679381;85;25614;-72
2022/02/15 05:56:49;;;;;;;51.10;26.17;;;;;;;-0.50;78.97;99848.79;1678803;85;25396;-73
2022/02/15 05:59:15;;;;;;;45.73;25.00;;;;;;;-0.50;79.45;99851.98;1678800;85;27902;-73
2022/02/15 06:01:43;;;;;;;45.43;23.60;;;;;;;-0.51;79.10;99841.89;1678895;85;25701;-73
2022/02/15 06:04:11;;;;;;;50.92;25.02;;;;;;;-0.52;78.88;99838.94;1659734;85;25472;-73
2022/02/15 06:06:41;;;;;;;47.67;24.60;;;;;;;-0.52;79.01;99847.45;1678796;85;25893;-73
2022/02/15 06:09:08;;;;;;;51.42;25.65;;;;;;;-0.52;79.13;99849.56;1678865;85;25612;-74
2022/02/15 06:11:35;;;;;;;47.98;24.67;;;;;;;-0.52;79.27;99850.89;1678825;85;27519;-75
2022/02/15 06:14:02;;;;;;;48.68;23.62;;;;;;;-0.51;79.32;99855.17;1678756;85;25630;-72
2022/02/15 06:16:28;;;;;;;45.28;23.52;;;;;;;-0.49;79.35;99859.71;1678791;85;25647;-73
2022/02/15 06:18:56;;;;;;;43.98;23.38;;;;;;;-0.47;79.30;99856.27;1678766;85;25667;-73
2022/02/15 06:21:25;;;;;;;45.80;24.05;;;;;;;-0.46;79.09;99861.88;1679104;85;25546;-73
2022/02/15 06:23:52;;;;;;;48.10;23.57;;;;;;;-0.45;79.26;99858.16;1680166;85;27964;-73
2022/02/15 06:26:20;;;;;;;47.98;23.15;;;;;;;-0.43;79.20;99856.58;1678923;85;25469;-76
2022/02/15 06:28:46;;;;;;;45.63;23.87;;;;;;;-0.40;79.20;99860.08;1678978;85;25439;-74
2022/02/15 06:31:13;;;;;;;50.67;24.10;;;;;;;-0.34;79.13;99867.58;1678919;85;26227;-73
2022/02/15 06:33:40;;;;;;;46.30;21.77;;;;;;;-0.31;79.15;99866.56;1678966;85;25653;-73
2022/02/15 06:36:06;;;;;;;46.55;24.20;;;;;;;-0.25;79.12;99868.78;1649199;86;27352;-74
2022/02/15 06:38:33;;;;;;;43.42;23.83;;;;;;;-0.18;79.08;99872.05;1662981;86;25693;-74
2022/02/15 06:41:00;;;;;;;41.65;21.60;;;;;;;-0.12;79.11;99867.08;1663213;86;25463;-73
2022/02/15 06:43:26;;;;;;;46.23;22.90;;;;;;;-0.08;78.89;99866.84;1663084;86;25626;-73
2022/02/15 06:45:53;;;;;;;44.05;23.55;;;;;;;-0.05;78.88;99863.70;1663175;86;25594;-72
2022/02/15 06:48:21;;;;;;;46.50;22.32;;;;;;;0.00;78.89;99861.63;1663194;86;27910;-74
2022/02/15 06:50:48;;;;;;;43.85;23.25;;;;;;;0.01;78.69;99856.57;1663167;86;25665;-73
2022/02/15 06:53:14;;;;;;;45.23;22.77;;;;;;;0.05;78.69;99854.21;1663571;86;25525;-74
2022/02/15 06:55:41;;;;;;;46.37;23.25;;;;;;;0.12;78.74;99860.13;1663387;86;26280;-74
2022/02/15 06:58:07;;;;;;;44.35;22.98;;;;;;;0.20;78.91;99861.55;1663205;86;25487;-72
2022/02/15 07:00:33;;;;;;;41.60;22.52;;;;;;;0.32;79.05;99864.36;1663045;86;27348;-71
2022/02/15 07:03:00;;;;;;;44.05;21.65;;;;;;;0.51;79.16;99862.13;1662997;86;25530;-71
2022/02/15 07:05:27;;;;;;;40.98;22.75;;;;;;;0.68;79.02;99855.36;1645650;86;25444;-72
2022/02/15 07:07:53;;;;;;;39.55;22.35;;;;;;;0.92;79.06;99859.01;1663157;86;25636;-72
2022/02/15 07:10:20;;;;;;;44.48;22.85;;;;;;;1.17;78.81;99860.23;1663214;86;25603;-73
2022/02/15 07:12:49;;;;;;;44.10;22.15;;;;;;;1.42;77.81;99867.58;1663236;86;27351;-73
2022/02/15 07:15:15;;;;;;;44.38;24.50;;;;;;;1.59;77.14;99868.73;1663404;86;25703;-78
2022/02/15 07:17:42;;;;;;;43.13;21.90;;;;;;;1.80;76.81;99868.28;1670695;84;25527;-77
2022/02/15 07:20:10;;;;;;;46.48;22.20;;;;;;;2.00;76.46;99864.89;1689210;84;25666;-76
2022/02/15 07:22:40;;;;;;;42.60;22.05;;;;;;;2.18;75.75;99866.25;1681277;84;25412;-72
2022/02/15 07:25:08;;;;;;;42.88;22.37;;;;;;;2.33;75.20;99866.83;1674986;85;27881;-73
2022/02/15 07:27:35;;;;;;;38.25;20.60;;;;;;;2.53;75.07;99867.39;1641771;85;25798;-74
2022/02/15 07:30:02;;;;;;;38.53;21.52;;;;;;;2.77;75.02;99864.45;1674826;84;25807;-73
2022/02/15 07:32:29;;;;;;;38.48;20.10;;;;;;;2.99;74.39;99864.17;1650953;86;26203;-74
2022/02/15 07:34:59;;;;;;;40.78;21.62;;;;;;;3.23;73.46;99855.59;1630050;85;25543;-73
2022/02/15 07:37:26;;;;;;;;;;;;;;;3.42;72.99;99853.69;1657176;86;28196;-73
2022/02/15 07:39:53;;;;;;;40.00;19.65;;;;;;;3.71;72.47;99856.01;1637733;86;25801;-72
2022/02/15 07:42:20;;;;;;;40.48;20.50;;;;;;;3.96;72.44;99847.59;1655257;86;25541;-74
2022/02/15 07:44:46;;;;;;;38.05;19.45;;;;;;;4.21;70.99;99852.55;1627388;87;26175;-74
2022/02/15 07:47:14;;;;;;;35.20;19.17;;;;;;;4.42;69.35;99847.31;1642684;86;25622;-73
2022/02/15 07:49:40;;;;;;;34.25;18.00;;;;;;;4.76;69.41;99850.54;1640224;86;27901;-72
2022/02/15 07:52:07;;;;;;;33.60;18.48;;;;;;;5.03;68.77;99845.22;1638951;86;25797;-72
2022/02/15 07:54:33;;;;;;;33.73;18.62;;;;;;;5.40;68.22;99847.81;1649939;86;25755;-73
2022/02/15 07:56:59;;;;;;;38.08;23.20;;;;;;;5.98;68.77;99852.24;1626735;87;26182;-73
2022/02/15 07:59:26;;;;;;;37.58;21.62;;;;;;;6.61;66.57;99847.03;1628391;88;25387;-73
2022/02/15 08:01:52;;;;;;;40.30;21.60;;;;;;;7.04;66.04;99852.78;1648755;83;27408;-72
2022/02/15 08:04:20;;;;;;;38.00;21.23;;;;;;;7.48;65.09;99854.13;1706531;83;25665;-72
2022/02/15 08:06:52;;;;;;;34.92;20.72;;;;;;;7.71;63.95;99859.05;1705755;83;25679;-73
2022/02/15 08:09:15;;;;;;;33.50;20.52;;;;;;;7.96;64.56;99855.04;1696171;83;25743;-74
2022/02/15 08:11:47;;;;;;;35.88;20.25;;;;;;;8.11;62.96;99847.75;1664110;85;25473;-73
2022/02/15 08:14:13;;;;;;;34.92;21.12;;;;;;;8.25;63.02;99848.49;1659450;86;27270;-74
2022/02/15 08:16:40;;;;;;;31.82;19.62;;;;;;;8.57;63.06;99855.59;1658362;86;25697;-72
2022/02/15 08:19:06;;;;;;;38.75;25.32;;;;;;;8.56;61.06;99857.25;1664415;86;25339;-72
2022/02/15 08:21:32;;;;;;;37.23;21.02;;;;;;;8.59;59.37;99864.17;1655558;86;25703;-73
2022/02/15 08:23:59;;;;;;;36.08;22.25;;;;;;;8.67;59.90;99862.66;1662601;86;25345;-73
2022/02/15 08:26:26;;;;;;;35.88;21.82;;;;;;;8.82;59.53;99862.03;1653372;86;27405;-72
2022/02/15 08:28:52;;;;;;;34.20;20.62;;;;;;;8.93;59.81;99853.38;1652360;86;25755;-72
2022/02/15 08:31:19;;;;;;;37.10;22.17;;;;;;;9.30;59.52;99847.30;1653485;86;25709;-72
2022/02/15 08:33:45;;;;;;;37.10;22.07;;;;;;;9.38;58.34;99857.09;1658983;86;25605;-73
2022/02/15 08:36:12;;;;;;;60.50;54.08;;;;;;;9.33;57.42;99855.32;1665487;85;25958;-72
2022/02/15 08:38:42;;;;;;;38.05;21.10;;;;;;;9.35;55.72;99857.17;1708231;83;27486;-74
2022/02/15 08:41:11;;;;;;;31.60;20.17;;;;;;;9.45;56.78;99854.20;1679222;83;25665;-73
2022/02/15 08:43:37;;;;;;;34.90;22.58;;;;;;;9.78;57.12;99853.03;1711054;83;25772;-72
2022/02/15 08:46:04;;;;;;;36.38;22.73;;;;;;;9.94;54.07;99852.81;1700935;83;26255;-72
2022/02/15 08:48:30;;;;;;;39.73;21.17;;;;;;;10.05;55.89;99854.11;1708019;82;25413;-72
2022/02/15 08:50:57;;;;;;;34.92;20.75;;;;;;;10.24;54.93;99855.16;1731788;82;27908;-71
2022/02/15 08:53:23;;;;;;;30.30;19.75;;;;;;;10.37;54.07;99857.52;1701148;83;25836;-71
2022/02/15 08:55:50;;;;;;;36.15;21.77;;;;;;;10.26;52.47;99862.95;1732457;81;25734;-71
2022/02/15 08:58:16;;;;;;;33.48;21.93;;;;;;;10.26;53.18;99854.28;1737565;81;25769;-72
2022/02/15 09:00:43;;;;;;;35.08;21.52;;;;;;;10.16;50.93;99845.13;1723114;81;25750;-72
2022/02/15 09:03:09;;;;;;;31.82;21.75;;;;;;;10.04;52.80;99849.81;1726091;81;27150;-71
2022/02/15 09:05:36;;;;;;;32.53;21.35;;;;;;;10.32;52.92;99860.91;1747332;81;25384;-72
2022/02/15 09:08:02;;;;;;;34.70;21.52;;;;;;;10.45;52.79;99862.13;1733826;82;25688;-73
2022/02/15 09:10:29;;;;;;;35.28;21.80;;;;;;;10.72;52.94;99862.11;1735403;82;26182;-73
2022/02/15 09:12:56;;;;;;;31.33;21.05;;;;;;;10.91;52.39;99860.41;1703768;83;25442;-71
2022/02/15 09:15:22;;;;;;;33.75;21.70;;;;;;;10.90;52.31;99866.38;1743550;81;27412;-72
2022/02/15 09:17:49;;;;;;;33.42;20.90;;;;;;;10.80;51.25;99860.73;1706814;83;25823;-73
2022/02/15 09:20:15;;;;;;;32.78;20.35;;;;;;;10.71;50.89;99858.62;1698445;83;25635;-73
2022/02/15 09:22:42;;;;;;;35.75;20.50;;;;;;;10.38;50.99;99853.68;1695099;83;26145;-72
2022/02/15 09:25:10;;;;;;;35.95;20.72;;;;;;;9.99;51.00;99853.23;1659718;85;25634;-74
2022/02/15 09:27:36;;;;;;;33.33;20.52;;;;;;;9.53;50.94;99856.14;1633644;85;27318;-73
2022/02/15 09:30:05;;;;;;;32.45;20.40;;;;;;;9.10;51.15;99847.84;1653207;86;25689;-73
2022/02/15 09:32:31;;;;;;;36.80;21.12;;;;;;;8.74;51.64;99867.06;1708584;83;25680;-72
2022/02/15 09:34:58;;;;;;;32.73;20.45;;;;;;;8.49;52.95;99866.31;1675531;85;26235;-73
2022/02/15 09:37:26;;;;;;;37.50;22.30;;;;;;;8.32;52.97;99864.25;1691711;84;25719;-72
2022/02/15 09:39:55;;;;;;;36.20;19.77;;;;;;;8.11;53.32;99875.47;1699425;84;27307;-73
2022/02/15 09:42:23;;;;;;;37.60;19.50;;;;;;;7.91;53.82;99867.83;1677213;85;25700;-73
2022/02/15 09:44:50;;;;;;;37.58;21.75;;;;;;;7.86;54.63;99863.33;1708600;83;25691;-73
2022/02/15 09:47:28;;;;;;;37.53;21.85;;;;;;;7.95;55.07;99861.55;1690068;83;26307;-73
2022/02/15 09:49:56;;;;;;;35.23;21.70;;;;;;;8.16;54.63;99880.75;1677550;85;26320;-72
2022/02/15 09:52:24;;;;;;;33.58;21.75;;;;;;;8.12;54.55;99882.47;1670413;85;27988;-73
2022/02/15 09:54:55;;;;;;;36.30;22.73;;;;;;;8.17;54.84;99881.01;1679785;85;25870;-73
2022/02/15 09:57:24;;;;;;;36.83;23.02;;;;;;;8.24;54.78;99891.38;1657742;85;25748;-73
2022/02/15 09:59:52;;;;;;;40.35;23.15;;;;;;;8.17;54.44;99878.31;1644409;85;26482;-72
2022/02/15 10:02:34;;;;;;;37.23;22.13;;;;;;;8.08;54.67;99880.11;1669360;85;25953;-73
2022/02/15 10:04:58;;;;;;;37.53;22.55;;;;;;;8.00;54.83;99876.25;1674482;85;27410;-73
2022/02/15 10:07:25;;;;;;;36.98;22.17;;;;;;;7.94;54.84;99884.17;1664001;85;25758;-73
2022/02/15 10:09:54;;;;;;;38.85;23.15;;;;;;;7.87;55.38;99879.75;1677679;85;25821;-73
2022/02/15 10:12:28;;;;;;;39.08;22.67;;;;;;;7.92;56.01;99870.78;1645235;85;25734;-74
2022/02/15 10:14:55;;;;;;;44.58;23.55;;;;;;;8.01;55.74;99864.36;1665840;85;25771;-73
2022/02/15 10:17:23;;;;;;;39.63;23.38;;;;;;;7.88;54.99;99859.00;1663703;85;27219;-72
2022/02/15 10:19:53;;;;;;;35.83;21.53;;;;;;;7.69;55.39;99865.28;1682492;85;25722;-72
2022/02/15 10:22:21;;;;;;;41.13;23.18;;;;;;;7.52;55.61;99842.22;1683535;85;25679;-73
2022/02/15 10:24:59;;;;;;;39.08;23.18;;;;;;;7.37;56.08;99850.03;1666034;85;25742;-73
2022/02/15 10:27:30;;;;;;;36.90;22.40;;;;;;;7.23;56.16;99856.19;1694715;83;25786;-68
2022/02/15 10:29:58;;;;;;;36.63;22.30;;;;;;;7.13;56.79;99853.69;1702392;83;27417;-73
2022/02/15 10:32:25;;;;;;;41.28;22.42;;;;;;;7.14;57.08;99858.53;1676300;85;25942;-73
2022/02/15 10:34:56;;;;;;;39.40;22.95;;;;;;;7.14;57.38;99866.05;1711013;83;25763;-73
2022/02/15 10:37:32;;;;;;;39.40;22.48;;;;;;;7.11;57.41;99860.70;1686254;84;25751;-74
2022/02/15 10:40:06;;;;;;;38.53;22.02;;;;;;;7.06;57.49;99855.97;1645605;85;25810;-73
2022/02/15 10:42:36;;;;;;;38.30;22.90;;;;;;;6.97;57.75;99859.09;1685894;85;27336;-73
2022/02/15 10:45:05;;;;;;;;;;;;;;;6.92;57.81;99862.11;1678895;83;25627;-74
2022/02/15 10:47:38;;;;;;;36.37;22.57;;;;;;;6.89;58.23;99859.22;1662448;85;25798;-72
2022/02/15 10:50:09;;;;;;;38.38;21.40;;;;;;;6.84;58.42;99862.77;1682239;85;25711;-73
2022/02/15 10:52:37;;;;;;;38.42;22.25;;;;;;;6.86;58.58;99865.17;1669089;85;25802;-71
2022/02/15 10:55:05;;;;;;;35.20;21.87;;;;;;;6.90;58.82;99854.89;1697720;84;27364;-74
2022/02/15 10:57:32;;;;;;;41.58;21.50;;;;;;;7.04;59.31;99853.57;1701672;84;25724;-74
2022/02/15 11:00:04;;;;;;;36.42;20.95;;;;;;;7.20;59.27;99835.28;1702432;84;25784;-73
2022/02/15 11:02:31;;;;;;;36.58;21.65;;;;;;;7.52;58.85;99843.56;1704431;84;26244;-73
2022/02/15 11:05:03;;;;;;;37.93;22.32;;;;;;;7.61;58.45;99842.58;1701838;84;26244;-73
2022/02/15 11:07:32;;;;;;;33.85;21.55;;;;;;;7.78;58.74;99851.39;1679698;84;28006;-74
2022/02/15 11:10:15;;;;;;;32.58;22.17;;;;;;;8.00;58.19;99842.58;1701454;84;25767;-73
2022/02/15 11:12:52;;;;;;;38.60;21.62;;;;;;;8.11;57.38;99844.49;1664460;85;25780;-73
2022/02/15 11:15:30;;;;;;;33.75;20.75;;;;;;;8.17;56.79;99847.33;1701732;84;25572;-74
2022/02/15 11:18:01;;;;;;;39.25;21.93;;;;;;;8.17;56.76;99849.20;1671964;84;25766;-73
2022/02/15 11:20:50;;;;;;;33.35;20.95;;;;;;;8.23;56.02;99855.53;1704994;84;27302;-74
2022/02/15 11:23:01;;;;;;;35.43;21.62;;;;;;;8.18;56.07;99838.13;1685320;84;25827;-73
2022/02/15 11:25:37;;;;;;;40.08;21.70;;;;;;;8.17;56.37;99837.91;1730549;82;25828;-73
2022/02/15 11:28:14;;;;;;;35.48;21.12;;;;;;;8.18;56.71;99858.34;1731227;81;26179;-73